Terminal Aerodrome Forecast
Issued by NWS New Orleans/Baton Rouge, LA

Home | Current Version | Previous Version | Text Only | Print | Product List | Glossary On
Versions: 1 2 3 4 5 6 7 8 9 10 11 12 13 14
000
FTUS44 KLIX 290500
TAFBTR
TAF
KBTR 290522Z 2906/3006 16004KT P6SM FEW250
     FM291800 22008KT P6SM BKN250
     FM300100 25004KT P6SM BKN100
     FM300500 34005KT P6SM BKN250=

USA.gov is the U.S. government's official web portal to all federal, state and local government web resources and services.